Time;durP1;ratioP1;P1;durP2;ratioP2;P2;SDS_P1;SDS_P2;PMS_P1;PMS_P2;Temp;Humidity;BMP_temperature;BMP_pressure;BME280_temperature;BME280_humidity;BME280_pressure;Samples;Min_cycle;Max_cycle;Signal;HPM_P1;HPM_P2
2022/06/27 00:02:23;;;;;;;40.83;38.50;;;;;;;23.43;45.97;101405.94;5056666;28;20495;-82
2022/06/27 00:04:48;;;;;;;41.63;39.42;;;;;;;23.42;45.84;101411.78;5057227;28;20608;-77
2022/06/27 00:07:14;;;;;;;42.28;40.05;;;;;;;23.41;45.77;101410.13;5056788;28;20538;-82
2022/06/27 00:09:39;;;;;;;41.03;38.72;;;;;;;23.40;45.71;101414.84;5057062;28;20029;-81
2022/06/27 00:12:06;;;;;;;42.60;39.55;;;;;;;23.39;45.80;101420.69;5057381;28;20108;-81
2022/06/27 00:14:31;;;;;;;39.95;37.85;;;;;;;23.37;45.72;101420.97;5056324;28;20124;-80
2022/06/27 00:16:57;;;;;;;41.10;38.92;;;;;;;23.37;45.74;101422.94;5056630;28;20069;-81
2022/06/27 00:19:22;;;;;;;41.05;38.95;;;;;;;23.34;46.13;101424.38;5057129;28;20033;-80
2022/06/27 00:21:47;;;;;;;43.80;41.38;;;;;;;23.33;45.98;101423.56;5056556;28;20357;-82
2022/06/27 00:24:13;;;;;;;39.60;37.47;;;;;;;23.33;46.25;101428.25;5056424;28;20053;-82
2022/06/27 00:26:38;;;;;;;41.72;39.63;;;;;;;23.31;45.93;101431.31;5055253;28;20037;-80
2022/06/27 00:29:04;;;;;;;41.03;38.83;;;;;;;23.28;46.30;101428.38;5054475;28;20037;-80
2022/06/27 00:31:30;;;;;;;41.85;38.95;;;;;;;23.27;46.07;101419.28;5055942;28;20086;-81
2022/06/27 00:33:55;;;;;;;42.00;39.83;;;;;;;23.27;46.26;101426.75;5038989;28;20025;-82
2022/06/27 00:36:21;;;;;;;40.90;38.70;;;;;;;23.26;45.96;101427.88;5055457;28;20123;-81
2022/06/27 00:38:46;;;;;;;41.42;39.13;;;;;;;23.24;46.32;101428.19;5055141;28;20082;-79
2022/06/27 00:41:11;;;;;;;40.00;37.80;;;;;;;23.22;45.95;101435.13;5055882;28;20032;-80
2022/06/27 00:43:37;;;;;;;41.92;39.40;;;;;;;23.21;46.27;101437.09;5055858;28;20116;-81
2022/06/27 00:46:02;;;;;;;41.60;39.30;;;;;;;23.20;46.24;101437.38;5054595;28;20025;-81
2022/06/27 00:48:28;;;;;;;39.92;37.85;;;;;;;23.20;45.99;101434.63;5056017;28;20084;-80
2022/06/27 00:50:56;;;;;;;40.13;38.13;;;;;;;23.18;46.16;101429.41;5056158;28;20087;-80
2022/06/27 00:53:22;;;;;;;39.63;37.50;;;;;;;23.17;46.11;101436.06;5055524;28;20041;-80
2022/06/27 00:55:47;;;;;;;41.00;38.90;;;;;;;23.15;45.93;101441.06;5055421;28;20504;-80
2022/06/27 00:58:13;;;;;;;40.47;38.35;;;;;;;23.15;46.47;101443.81;5055090;28;20029;-79
2022/06/27 01:00:38;;;;;;;41.90;39.60;;;;;;;23.13;46.11;101439.75;5055377;28;20108;-80
2022/06/27 01:03:04;;;;;;;40.97;38.75;;;;;;;23.12;46.35;101438.94;5054615;28;20028;-80
2022/06/27 01:05:29;;;;;;;40.67;38.63;;;;;;;23.11;46.34;101440.06;5055048;28;20039;-80
2022/06/27 01:07:55;;;;;;;41.28;39.08;;;;;;;23.09;46.33;101443.13;5054853;28;20416;-80
2022/06/27 01:10:20;;;;;;;41.20;39.13;;;;;;;23.08;46.03;101444.25;5053958;28;20037;-81
2022/06/27 01:12:48;;;;;;;41.25;39.05;;;;;;;23.07;46.38;101450.88;5054883;28;20060;-81
2022/06/27 01:15:13;;;;;;;40.20;38.00;;;;;;;23.05;46.11;101442.09;5053759;28;20417;-80
2022/06/27 01:17:39;;;;;;;41.65;38.90;;;;;;;23.05;46.17;101441.31;5055053;28;20078;-80
2022/06/27 01:20:06;;;;;;;42.42;39.92;;;;;;;23.05;46.33;101449.56;5054559;28;20523;-81
2022/06/27 01:22:32;;;;;;;41.40;39.20;;;;;;;23.03;46.16;101446.28;5053483;28;20036;-79
2022/06/27 01:24:57;;;;;;;41.42;39.22;;;;;;;23.02;46.32;101453.75;5054302;28;20053;-81
2022/06/27 01:27:23;;;;;;;40.65;38.50;;;;;;;23.01;46.61;101456.84;5054329;28;20025;-81
2022/06/27 01:29:48;;;;;;;41.63;39.42;;;;;;;23.00;46.54;101449.69;5053548;28;20060;-79
2022/06/27 01:32:15;;;;;;;39.78;37.67;;;;;;;22.98;46.30;101447.25;5053976;28;20355;-81
2022/06/27 01:34:41;;;;;;;41.92;39.70;;;;;;;22.97;46.31;101448.34;5054863;28;20033;-80
2022/06/27 01:37:06;;;;;;;40.75;38.55;;;;;;;22.97;46.46;101439.25;5055668;28;20061;-81
2022/06/27 01:39:31;;;;;;;41.47;39.28;;;;;;;22.95;46.59;101442.31;5053415;28;20044;-79
2022/06/27 01:41:59;;;;;;;40.85;38.55;;;;;;;22.94;46.59;101439.88;5054814;28;20037;-80
2022/06/27 01:44:28;;;;;;;39.80;37.58;;;;;;;22.92;46.52;101434.66;5054851;28;20092;-80
2022/06/27 01:47:00;;;;;;;42.17;39.80;;;;;;;22.92;46.51;101429.16;5055179;28;20037;-79
2022/06/27 01:49:28;;;;;;;41.03;38.53;;;;;;;22.91;46.44;101430.28;5054950;28;20025;-77
2022/06/27 01:51:55;;;;;;;41.70;39.35;;;;;;;22.89;46.86;101425.09;5054546;28;20040;-79
2022/06/27 01:54:22;;;;;;;41.30;38.97;;;;;;;22.88;46.39;101417.97;5055061;28;20029;-82
2022/06/27 01:56:51;;;;;;;42.63;40.33;;;;;;;22.87;46.78;101415.50;5055312;28;20036;-79
2022/06/27 01:59:20;;;;;;;40.67;38.55;;;;;;;22.86;46.75;101408.38;5056091;28;20116;-78
2022/06/27 02:01:46;;;;;;;42.38;39.88;;;;;;;22.84;46.94;101405.91;5055162;28;20032;-79
2022/06/27 02:04:12;;;;;;;41.28;38.90;;;;;;;22.84;47.08;101405.09;5054749;28;20027;-79
2022/06/27 02:06:39;;;;;;;42.05;39.30;;;;;;;22.83;47.23;101390.53;5054592;28;20029;-73
2022/06/27 02:09:06;;;;;;;41.65;39.35;;;;;;;22.82;46.93;101391.63;5054623;28;20520;-80
2022/06/27 02:11:32;;;;;;;41.33;38.47;;;;;;;22.81;46.79;101395.53;5055571;28;20051;-80
2022/06/27 02:13:58;;;;;;;39.75;37.65;;;;;;;22.79;47.09;101388.69;5054216;28;20036;-78
2022/06/27 02:16:24;;;;;;;40.00;38.00;;;;;;;22.78;47.22;101381.53;5054896;28;20029;-81
2022/06/27 02:18:50;;;;;;;42.25;39.95;;;;;;;22.77;46.84;101383.47;5053137;28;20473;-80
2022/06/27 02:21:22;;;;;;;40.20;38.15;;;;;;;22.77;47.03;101379.91;5053862;28;20048;-82
2022/06/27 02:23:49;;;;;;;42.15;39.72;;;;;;;22.75;46.80;101379.41;5052638;28;20033;-81
2022/06/27 02:26:15;;;;;;;40.38;38.15;;;;;;;22.75;47.19;101382.16;5033866;28;20072;-81
2022/06/27 02:28:42;;;;;;;41.55;38.78;;;;;;;22.74;47.27;101377.78;5032459;28;20025;-78
2022/06/27 02:31:09;;;;;;;40.97;38.58;;;;;;;22.73;46.84;101378.91;5033856;28;20454;-81
2022/06/27 02:33:41;;;;;;;42.85;40.40;;;;;;;22.73;47.15;101381.66;5034377;28;20029;-83
2022/06/27 02:36:09;;;;;;;39.60;37.40;;;;;;;22.71;46.95;101381.16;5034630;28;20061;-84
2022/06/27 02:38:35;;;;;;;40.45;38.13;;;;;;;22.70;46.96;101377.56;5035066;28;20029;-79
2022/06/27 02:41:04;;;;;;;40.60;38.30;;;;;;;22.69;46.91;101373.22;5033649;28;20144;-80
2022/06/27 02:43:32;;;;;;;40.22;37.63;;;;;;;22.67;46.98;101370.75;5036117;28;20105;-83
2022/06/27 02:45:57;;;;;;;40.63;38.08;;;;;;;22.66;47.04;101368.31;5038001;28;20037;-81
2022/06/27 02:48:24;;;;;;;40.35;38.00;;;;;;;22.67;47.48;101364.44;5037365;28;20116;-81
2022/06/27 02:50:58;;;;;;;41.30;39.00;;;;;;;22.65;47.39;101358.41;5037314;28;20033;-83
2022/06/27 02:53:27;;;;;;;41.92;39.22;;;;;;;22.64;47.44;101351.28;5041263;28;20052;-81
2022/06/27 02:55:59;;;;;;;40.40;38.13;;;;;;;22.63;47.52;101352.44;5044485;28;20029;-80
2022/06/27 02:58:38;;;;;;;40.63;38.22;;;;;;;22.63;47.52;101346.91;5044341;28;20048;-81
2022/06/27 03:01:03;;;;;;;41.08;38.90;;;;;;;22.61;47.19;101352.72;5048381;28;20064;-80
2022/06/27 03:03:31;;;;;;;40.85;38.28;;;;;;;22.60;47.52;101350.28;5053270;28;20012;-80
2022/06/27 03:06:04;;;;;;;41.45;39.25;;;;;;;22.59;47.22;101351.41;5047531;28;20486;-81
2022/06/27 03:08:42;;;;;;;41.35;38.97;;;;;;;22.57;47.62;101350.91;5045765;28;20037;-81
2022/06/27 03:11:09;;;;;;;39.63;37.50;;;;;;;22.56;47.47;101341.00;5046465;28;20037;-82
2022/06/27 03:13:34;;;;;;;41.92;39.63;;;;;;;22.55;47.63;101345.69;5049704;28;20057;-80
2022/06/27 03:16:00;;;;;;;41.42;39.00;;;;;;;22.54;47.12;101338.56;5045690;28;20053;-79
2022/06/27 03:18:25;;;;;;;39.17;36.83;;;;;;;22.53;47.51;101331.44;5049990;28;20029;-79
2022/06/27 03:20:51;;;;;;;40.63;38.25;;;;;;;22.53;47.69;101325.09;5046827;28;20034;-79
2022/06/27 03:23:18;;;;;;;42.00;39.55;;;;;;;22.51;47.66;101330.94;5044862;28;20051;-81
2022/06/27 03:25:43;;;;;;;39.88;37.67;;;;;;;22.50;47.16;101345.00;5061309;28;20057;-81
2022/06/27 03:28:09;;;;;;;37.75;35.55;;;;;;;22.49;47.13;101354.38;5063686;28;20033;-82
2022/06/27 03:30:34;;;;;;;39.40;37.30;;;;;;;22.48;47.43;101359.09;5061041;28;20032;-81
2022/06/27 03:33:01;;;;;;;39.70;37.55;;;;;;;22.46;47.36;101345.63;5061438;28;20040;-79
2022/06/27 03:35:26;;;;;;;39.65;37.40;;;;;;;22.45;47.25;101338.50;5062240;28;20013;-82
2022/06/27 03:37:52;;;;;;;41.65;39.25;;;;;;;22.44;47.49;101331.34;5061022;28;20036;-79
2022/06/27 03:40:17;;;;;;;42.42;40.03;;;;;;;22.43;47.39;101339.91;5057840;28;20071;-79
2022/06/27 03:42:43;;;;;;;39.95;37.65;;;;;;;22.42;47.58;101341.84;5056778;28;20489;-81
2022/06/27 03:45:09;;;;;;;40.20;38.08;;;;;;;22.42;47.78;101350.09;5059094;28;20035;-80
2022/06/27 03:47:51;;;;;;;41.35;38.97;;;;;;;22.40;47.60;101344.09;5059375;28;20441;-80
2022/06/27 03:50:18;;;;;;;39.28;36.72;;;;;;;22.39;47.45;101344.41;5057699;28;20032;-78
2022/06/27 03:52:43;;;;;;;39.03;36.20;;;;;;;22.37;47.45;101352.94;5057337;28;20033;-79
2022/06/27 03:55:10;;;;;;;40.38;38.08;;;;;;;22.37;47.84;101371.41;5057325;28;20033;-80
2022/06/27 03:57:46;;;;;;;40.75;38.50;;;;;;;22.36;47.85;101375.31;5058915;28;20366;-80
2022/06/27 04:00:11;;;;;;;41.38;39.10;;;;;;;22.34;47.47;101383.84;5059048;28;20102;-80
2022/06/27 04:02:37;;;;;;;40.40;38.10;;;;;;;22.35;47.53;101390.16;5058280;28;20488;-80
2022/06/27 04:05:03;;;;;;;40.20;37.90;;;;;;;22.33;47.83;101382.22;5057952;28;20033;-80
2022/06/27 04:07:29;;;;;;;38.35;36.28;;;;;;;22.32;48.01;101372.31;5059004;28;20040;-80
2022/06/27 04:09:55;;;;;;;41.58;38.92;;;;;;;22.32;47.65;101360.50;5059813;28;20033;-80
2022/06/27 04:12:21;;;;;;;39.72;37.53;;;;;;;22.30;47.87;101349.81;5057773;28;20037;-80
2022/06/27 04:14:46;;;;;;;40.30;37.92;;;;;;;22.29;47.75;101345.44;5038678;28;20052;-80
2022/06/27 04:17:11;;;;;;;40.53;38.33;;;;;;;22.29;47.93;101341.88;5056302;28;20067;-80
2022/06/27 04:19:37;;;;;;;40.72;38.42;;;;;;;22.27;47.72;101333.09;5055825;28;20054;-81
2022/06/27 04:22:03;;;;;;;40.55;38.35;;;;;;;22.26;47.83;101324.03;5055781;28;20475;-80
2022/06/27 04:24:28;;;;;;;41.47;39.08;;;;;;;22.26;48.19;101321.28;5056249;28;20057;-79
2022/06/27 04:26:54;;;;;;;38.92;36.92;;;;;;;22.24;48.06;101305.06;5055186;28;20036;-80
2022/06/27 04:29:19;;;;;;;40.22;37.83;;;;;;;22.23;48.19;101297.94;5055616;28;20040;-80
2022/06/27 04:31:44;;;;;;;40.00;37.80;;;;;;;22.23;48.20;101299.88;5056099;28;20035;-80
2022/06/27 04:34:12;;;;;;;41.30;39.00;;;;;;;22.22;47.83;101298.25;5054144;28;20035;-81
2022/06/27 04:36:38;;;;;;;40.00;37.80;;;;;;;22.20;47.90;101298.56;5054402;28;20116;-78
2022/06/27 04:39:03;;;;;;;41.40;38.90;;;;;;;22.19;48.16;101291.41;5055641;28;20438;-78
2022/06/27 04:41:29;;;;;;;41.30;39.10;;;;;;;22.19;47.85;101287.81;5053902;28;20035;-80
2022/06/27 04:43:55;;;;;;;39.28;37.08;;;;;;;22.18;47.91;101292.50;5053701;28;20033;-81
2022/06/27 04:46:21;;;;;;;40.95;38.72;;;;;;;22.18;48.34;101305.47;5054314;28;20090;-79
2022/06/27 04:48:48;;;;;;;40.22;38.13;;;;;;;22.18;48.21;101299.97;5055001;28;20119;-79
2022/06/27 04:51:14;;;;;;;41.42;39.08;;;;;;;22.17;48.42;101295.56;5054272;28;20033;-79
2022/06/27 04:53:40;;;;;;;39.78;37.53;;;;;;;22.16;47.90;101285.69;5055419;28;20037;-81
2022/06/27 04:56:08;;;;;;;41.65;39.17;;;;;;;22.14;48.15;101277.75;5055541;28;20385;-79
2022/06/27 04:58:34;;;;;;;39.67;37.47;;;;;;;22.12;47.91;101279.97;5053963;28;20025;-80
2022/06/27 05:01:00;;;;;;;41.30;39.03;;;;;;;22.13;48.08;101297.31;5054749;28;20037;-79
2022/06/27 05:03:25;;;;;;;40.80;38.40;;;;;;;22.12;48.01;101296.47;5053894;28;20037;-76
2022/06/27 05:05:51;;;;;;;41.40;39.03;;;;;;;22.11;48.01;101294.88;5054124;28;20033;-79
2022/06/27 05:08:17;;;;;;;40.25;38.05;;;;;;;22.11;47.90;101294.06;5054388;28;20481;-81
2022/06/27 05:10:43;;;;;;;39.15;37.03;;;;;;;22.11;48.52;101288.56;5053368;28;20029;-78
2022/06/27 05:13:08;;;;;;;40.63;38.33;;;;;;;22.09;48.33;101283.34;5054760;28;20515;-80
2022/06/27 05:15:36;;;;;;;40.65;38.05;;;;;;;22.08;48.40;101292.72;5053907;28;20037;-80
2022/06/27 05:18:03;;;;;;;39.10;36.95;;;;;;;22.08;48.55;101314.75;5054049;28;20056;-79
2022/06/27 05:20:30;;;;;;;39.38;37.17;;;;;;;22.08;48.28;101316.69;5054759;28;20037;-79
2022/06/27 05:22:56;;;;;;;39.05;36.95;;;;;;;22.07;48.14;101320.53;5054268;28;20041;-80
2022/06/27 05:25:22;;;;;;;38.45;36.35;;;;;;;22.06;48.31;101329.94;5053456;28;20049;-80
2022/06/27 05:27:48;;;;;;;38.65;36.55;;;;;;;22.05;48.34;101329.13;5054051;28;20051;-80
2022/06/27 05:30:15;;;;;;;41.25;38.53;;;;;;;22.05;48.50;101326.38;5053213;28;20410;-81
2022/06/27 05:32:41;;;;;;;39.65;37.55;;;;;;;22.04;48.46;101346.72;5054123;28;20033;-80
2022/06/27 05:35:07;;;;;;;39.97;37.80;;;;;;;22.04;48.38;101360.47;5053816;28;20033;-80
2022/06/27 05:37:34;;;;;;;40.25;37.85;;;;;;;22.04;48.63;101377.00;5054259;28;20060;-79
2022/06/27 05:40:00;;;;;;;39.45;37.20;;;;;;;22.03;48.46;101389.13;5053727;28;20040;-78
2022/06/27 05:42:25;;;;;;;40.55;38.20;;;;;;;22.01;48.58;101386.66;5052371;28;20033;-79
2022/06/27 05:44:51;;;;;;;39.15;36.95;;;;;;;21.99;48.13;101386.16;5053706;28;20039;-80
2022/06/27 05:47:16;;;;;;;40.75;38.45;;;;;;;22.00;48.74;101403.50;5053545;28;20511;-80
2022/06/27 05:49:44;;;;;;;39.80;37.20;;;;;;;21.99;48.42;101397.16;5054587;28;20094;-81
2022/06/27 05:52:10;;;;;;;39.20;37.07;;;;;;;21.97;48.52;101390.31;5053542;28;20031;-80
2022/06/27 05:54:35;;;;;;;39.85;37.63;;;;;;;21.99;48.63;101393.59;5053604;28;20112;-80
2022/06/27 05:57:01;;;;;;;43.28;40.42;;;;;;;21.97;48.39;101382.91;5053608;28;20029;-80
2022/06/27 05:59:28;;;;;;;41.42;38.85;;;;;;;21.97;48.45;101377.41;5053349;28;20033;-80
2022/06/27 06:01:54;;;;;;;39.47;37.17;;;;;;;21.97;48.45;101379.31;5052391;28;20122;-80
2022/06/27 06:04:20;;;;;;;41.80;39.40;;;;;;;21.96;48.55;101394.22;5054105;28;20060;-80
2022/06/27 06:06:46;;;;;;;39.65;37.40;;;;;;;21.95;48.80;101409.09;5053371;28;20043;-83
2022/06/27 06:09:13;;;;;;;40.85;38.50;;;;;;;21.94;48.90;101411.00;5052488;28;20112;-81
2022/06/27 06:11:39;;;;;;;40.17;38.05;;;;;;;21.94;48.80;101418.44;5053585;28;20037;-79
2022/06/27 06:14:05;;;;;;;40.70;38.22;;;;;;;21.94;48.89;101433.00;5053461;28;20492;-79
2022/06/27 06:16:31;;;;;;;40.83;38.25;;;;;;;21.93;48.62;101439.63;5053324;28;20124;-79
2022/06/27 06:18:57;;;;;;;41.70;38.90;;;;;;;21.93;48.32;101450.63;5053423;28;20462;-83
2022/06/27 06:21:23;;;;;;;42.72;40.03;;;;;;;21.92;48.57;101439.94;5053367;28;20037;-82
2022/06/27 06:23:51;;;;;;;39.80;37.60;;;;;;;21.93;48.42;101455.34;5051632;28;20037;-81
2022/06/27 06:26:17;;;;;;;40.80;38.40;;;;;;;21.91;48.80;101460.31;5054595;28;20420;-80
2022/06/27 06:28:51;;;;;;;40.15;37.83;;;;;;;21.92;48.65;101451.75;5057318;28;20264;-81
2022/06/27 06:31:23;;;;;;;40.42;37.92;;;;;;;21.92;48.63;101440.75;5057134;28;20493;-81
2022/06/27 06:33:51;;;;;;;38.85;36.53;;;;;;;21.91;48.79;101432.81;5058025;28;20357;-82
2022/06/27 06:36:18;;;;;;;41.70;39.30;;;;;;;21.90;49.03;101434.75;5057571;28;20037;-83
2022/06/27 06:38:44;;;;;;;39.70;37.40;;;;;;;21.89;48.85;101416.59;5056615;28;20040;-76
2022/06/27 06:41:10;;;;;;;40.55;38.15;;;;;;;21.89;48.80;101391.84;5056984;28;20028;-74
2022/06/27 06:43:36;;;;;;;41.83;38.97;;;;;;;21.89;48.81;101377.28;5055933;28;20033;-82
2022/06/27 06:46:02;;;;;;;40.50;37.78;;;;;;;21.88;49.02;101379.22;5055518;28;20053;-81
2022/06/27 06:48:27;;;;;;;39.25;36.80;;;;;;;21.89;49.00;101385.53;5056818;28;20064;-81
2022/06/27 06:50:54;;;;;;;38.95;36.55;;;;;;;21.88;48.99;101381.97;5039181;28;20465;-81
2022/06/27 06:53:20;;;;;;;39.75;37.38;;;;;;;21.87;49.01;101391.31;5055481;28;20029;-78
2022/06/27 06:55:46;;;;;;;38.00;35.80;;;;;;;21.87;48.65;101396.81;5056936;28;20060;-79
2022/06/27 06:58:11;;;;;;;39.15;36.95;;;;;;;21.87;48.98;101382.25;5057095;28;20183;-74
2022/06/27 07:00:38;;;;;;;39.40;37.10;;;;;;;21.87;49.12;101383.06;5055798;28;20400;-80
2022/06/27 07:03:04;;;;;;;39.45;37.15;;;;;;;21.87;48.81;101377.56;5057232;28;20029;-80
2022/06/27 07:05:31;;;;;;;40.15;37.65;;;;;;;21.87;48.73;101368.50;5055354;28;20044;-80
2022/06/27 07:08:00;;;;;;;39.50;37.10;;;;;;;21.86;49.15;101364.16;5056517;28;20041;-80
2022/06/27 07:10:26;;;;;;;40.75;38.13;;;;;;;21.86;48.81;101375.94;5056605;28;20068;-79
2022/06/27 07:12:51;;;;;;;39.78;37.47;;;;;;;21.87;48.86;101376.75;5056716;28;20060;-80
2022/06/27 07:15:18;;;;;;;39.83;37.45;;;;;;;21.87;48.92;101372.06;5056305;28;20025;-80
2022/06/27 07:17:46;;;;;;;37.78;35.78;;;;;;;21.87;48.66;101380.31;5056337;28;20036;-81
2022/06/27 07:20:13;;;;;;;38.15;35.28;;;;;;;21.86;48.65;101378.69;5056396;28;20035;-80
2022/06/27 07:22:40;;;;;;;37.97;35.88;;;;;;;21.86;49.00;101380.66;5056038;28;20144;-80
2022/06/27 07:25:07;;;;;;;39.13;36.83;;;;;;;21.86;49.00;101384.22;5056350;28;20144;-80
2022/06/27 07:27:34;;;;;;;39.90;37.60;;;;;;;21.87;48.77;101398.75;5056089;28;20042;-77
2022/06/27 07:30:01;;;;;;;39.05;36.83;;;;;;;21.87;48.67;101393.25;5056128;28;20067;-79
2022/06/27 07:32:27;;;;;;;40.35;37.97;;;;;;;21.87;48.61;101399.56;5056343;28;20036;-80
2022/06/27 07:34:54;;;;;;;40.72;38.13;;;;;;;21.88;48.72;101416.91;5055021;28;20120;-80
2022/06/27 07:37:20;;;;;;;38.42;36.17;;;;;;;21.87;48.78;101410.56;5053921;28;20037;-81
2022/06/27 07:39:46;;;;;;;40.30;37.28;;;;;;;21.88;49.25;101409.47;5055722;28;20025;-78
2022/06/27 07:42:12;;;;;;;39.88;37.58;;;;;;;21.89;49.18;101402.03;5056855;28;20048;-80
2022/06/27 07:44:38;;;;;;;40.90;38.38;;;;;;;21.89;49.31;101411.09;5056263;28;20127;-81
2022/06/27 07:47:04;;;;;;;38.92;36.67;;;;;;;21.89;49.17;101419.34;5055780;28;20029;-79
2022/06/27 07:49:30;;;;;;;40.58;38.10;;;;;;;21.89;49.54;101432.28;5055602;28;20044;-81
2022/06/27 07:51:56;;;;;;;39.08;36.78;;;;;;;21.90;49.54;101428.41;5055698;28;20115;-78
2022/06/27 07:54:22;;;;;;;40.47;38.10;;;;;;;21.90;49.37;101433.91;5055825;28;20057;-80
2022/06/27 07:56:49;;;;;;;39.80;37.47;;;;;;;21.91;49.21;101441.06;5055702;28;20481;-79
2022/06/27 07:59:15;;;;;;;38.97;36.58;;;;;;;21.90;48.90;101434.75;5055940;28;20160;-80
2022/06/27 08:01:41;;;;;;;40.60;38.00;;;;;;;21.91;48.82;101422.63;5055876;28;20087;-79
2022/06/27 08:04:07;;;;;;;39.53;37.15;;;;;;;21.91;49.56;101411.63;5055551;28;20029;-80
2022/06/27 08:06:33;;;;;;;40.30;37.60;;;;;;;21.93;48.91;101408.56;5055624;28;20044;-81
2022/06/27 08:09:03;;;;;;;39.45;37.15;;;;;;;21.93;49.21;101416.81;5055558;28;20029;-79
2022/06/27 08:11:33;;;;;;;39.28;37.00;;;;;;;21.93;49.35;101425.06;5055279;28;20484;-80
2022/06/27 08:14:03;;;;;;;38.72;36.53;;;;;;;21.94;49.38;101434.94;5054541;28;20115;-80
2022/06/27 08:16:31;;;;;;;38.38;36.28;;;;;;;21.94;49.57;101424.75;5056041;28;20040;-80
2022/06/27 08:18:57;;;;;;;39.72;37.20;;;;;;;21.95;48.91;101431.09;5055423;28;20025;-81
2022/06/27 08:21:25;;;;;;;39.38;37.03;;;;;;;21.95;49.48;101437.41;5055200;28;20078;-79
2022/06/27 08:23:51;;;;;;;39.70;36.80;;;;;;;21.96;49.33;101441.78;5054007;28;20029;-81
2022/06/27 08:26:17;;;;;;;39.85;37.58;;;;;;;21.97;48.99;101437.09;5056123;28;20621;-80
2022/06/27 08:28:47;;;;;;;40.42;38.08;;;;;;;21.97;49.57;101446.19;5055032;28;20036;-81
2022/06/27 08:31:13;;;;;;;39.03;36.72;;;;;;;21.96;49.47;101452.78;5054970;28;20487;-81
2022/06/27 08:33:40;;;;;;;42.35;39.63;;;;;;;21.98;49.67;101458.81;5055260;28;20116;-80
2022/06/27 08:36:07;;;;;;;39.22;37.03;;;;;;;21.98;49.61;101471.75;5055709;28;20029;-81
2022/06/27 08:38:39;;;;;;;40.55;38.10;;;;;;;21.98;49.55;101478.06;5054942;28;20033;-77
2022/06/27 08:41:05;;;;;;;40.10;37.72;;;;;;;21.98;49.75;101467.06;5054901;28;20059;-80
2022/06/27 08:43:31;;;;;;;40.50;38.00;;;;;;;22.00;49.79;101464.00;5054862;28;20090;-81
2022/06/27 08:45:57;;;;;;;39.75;37.50;;;;;;;22.01;49.75;101465.63;5037473;28;20037;-81
2022/06/27 08:48:23;;;;;;;39.40;37.13;;;;;;;22.01;49.47;101458.19;5054882;28;20391;-81
2022/06/27 08:50:50;;;;;;;40.17;37.65;;;;;;;22.02;49.47;101456.25;5054108;28;20029;-80
2022/06/27 08:53:16;;;;;;;39.35;36.92;;;;;;;22.02;49.43;101454.34;5053859;28;20086;-80
2022/06/27 08:55:46;;;;;;;38.63;36.40;;;;;;;22.02;49.36;101451.59;5054486;28;20500;-80
2022/06/27 08:58:13;;;;;;;41.17;38.55;;;;;;;22.03;49.58;101464.22;5053529;28;20492;-80
2022/06/27 09:00:45;;;;;;;42.03;39.35;;;;;;;22.04;49.90;101471.34;5054505;28;20029;-81
2022/06/27 09:03:17;;;;;;;40.60;38.00;;;;;;;22.06;49.90;101472.97;5054462;28;20036;-81
2022/06/27 09:05:44;;;;;;;40.33;37.90;;;;;;;22.06;49.77;101484.00;5053104;28;20068;-82
2022/06/27 09:08:10;;;;;;;39.03;36.78;;;;;;;22.05;49.54;101483.19;5055159;28;20044;-82
2022/06/27 09:10:41;;;;;;;40.50;37.70;;;;;;;22.06;49.54;101484.81;5054255;28;20021;-82
2022/06/27 09:13:08;;;;;;;40.45;37.80;;;;;;;22.07;49.47;101469.09;5054307;28;20024;-82
2022/06/27 09:15:39;;;;;;;41.30;38.83;;;;;;;22.09;49.74;101458.63;5054559;28;20031;-79
2022/06/27 09:18:09;;;;;;;39.90;37.53;;;;;;;22.08;49.76;101463.31;5054132;28;20032;-80
2022/06/27 09:20:46;;;;;;;40.13;37.63;;;;;;;22.08;49.49;101477.06;5054037;28;20033;-81
2022/06/27 09:23:28;;;;;;;40.47;38.13;;;;;;;22.10;49.46;101490.50;5053949;28;20032;-81
2022/06/27 09:26:09;;;;;;;37.92;35.85;;;;;;;22.10;50.01;101490.50;5052913;28;20055;-84
2022/06/27 09:28:56;;;;;;;38.38;36.28;;;;;;;22.10;49.74;101487.75;5053985;28;20025;-81
2022/06/27 09:31:25;;;;;;;38.72;36.28;;;;;;;22.10;49.57;101485.84;5053900;28;20558;-81
2022/06/27 09:34:14;;;;;;;38.53;36.28;;;;;;;22.11;49.75;101481.16;5053841;28;20036;-82
2022/06/27 09:36:51;;;;;;;40.33;37.88;;;;;;;22.11;49.80;101475.66;5054344;28;20044;-83
2022/06/27 09:39:19;;;;;;;39.45;37.05;;;;;;;22.11;49.70;101476.44;5053837;28;20025;-80
2022/06/27 09:41:50;;;;;;;39.33;36.92;;;;;;;22.12;49.38;101477.25;5054077;28;20056;-82
2022/06/27 09:44:22;;;;;;;38.40;35.97;;;;;;;22.13;49.62;101478.91;5053723;28;20457;-81
2022/06/27 09:46:54;;;;;;;40.45;38.05;;;;;;;22.13;49.53;101470.66;5053643;28;20472;-83
2022/06/27 09:49:21;;;;;;;39.83;37.53;;;;;;;22.14;49.67;101475.84;5052764;28;20123;-83
2022/06/27 09:51:48;;;;;;;41.17;38.78;;;;;;;22.15;49.55;101471.16;5053037;28;20453;-81
2022/06/27 09:54:22;;;;;;;39.85;37.55;;;;;;;22.17;49.62;101468.91;5053418;28;20029;-79
2022/06/27 09:56:48;;;;;;;39.63;37.10;;;;;;;22.18;49.75;101462.31;5053897;28;20056;-79
2022/06/27 09:59:14;;;;;;;38.80;36.35;;;;;;;22.18;49.37;101454.06;5053637;28;20044;-79
2022/06/27 10:01:41;;;;;;;42.45;39.42;;;;;;;22.19;49.82;101451.00;5052760;28;20033;-79
2022/06/27 10:04:07;;;;;;;38.88;36.55;;;;;;;22.19;49.48;101456.50;5054159;28;20029;-80
2022/06/27 10:06:35;;;;;;;39.55;37.20;;;;;;;22.20;49.26;101457.31;5054103;28;20029;-73
2022/06/27 10:09:04;;;;;;;38.47;35.95;;;;;;;22.22;49.30;101457.84;5054142;28;20036;-81
2022/06/27 10:11:29;;;;;;;39.22;37.13;;;;;;;22.22;49.30;101458.66;5053893;28;20500;-78
2022/06/27 10:14:13;;;;;;;39.20;37.03;;;;;;;22.24;49.30;101456.41;5054293;28;20037;-80
2022/06/27 10:16:58;;;;;;;40.40;37.92;;;;;;;22.24;49.36;101469.38;5053656;28;20480;-80
2022/06/27 10:19:26;;;;;;;40.08;37.63;;;;;;;22.24;49.39;101467.44;5054034;28;20049;-80
2022/06/27 10:21:52;;;;;;;40.85;38.33;;;;;;;22.24;49.53;101467.44;5053381;28;20036;-80
2022/06/27 10:24:18;;;;;;;38.75;36.65;;;;;;;22.25;49.78;101460.81;5053732;28;20041;-79
2022/06/27 10:26:43;;;;;;;40.67;38.33;;;;;;;22.27;49.37;101455.00;5053338;28;20132;-78
2022/06/27 10:29:30;;;;;;;41.33;38.38;;;;;;;22.29;49.66;101458.25;5053609;28;20131;-80
2022/06/27 10:31:59;;;;;;;41.00;38.50;;;;;;;22.30;49.98;101464.56;5053515;28;20038;-80
2022/06/27 10:34:40;;;;;;;38.78;36.58;;;;;;;22.30;49.83;101465.41;5053696;28;20044;-78
2022/06/27 10:37:24;;;;;;;39.85;37.55;;;;;;;22.32;49.44;101459.59;5053354;28;20029;-80
2022/06/27 10:39:50;;;;;;;41.75;39.22;;;;;;;22.32;49.63;101459.59;5053361;28;20116;-79
2022/06/27 10:42:49;;;;;;;41.83;38.78;;;;;;;22.34;49.95;101460.09;5052098;28;20037;-80
2022/06/27 10:45:20;;;;;;;39.65;37.25;;;;;;;22.33;49.47;101469.50;5049142;28;20041;-77
2022/06/27 10:47:50;;;;;;;39.55;37.05;;;;;;;22.33;50.02;101459.28;5052984;28;20029;-78
2022/06/27 10:50:18;;;;;;;38.63;36.25;;;;;;;22.35;49.71;101456.22;5054282;28;20020;-80
2022/06/27 10:52:44;;;;;;;38.80;36.42;;;;;;;22.35;49.96;101473.56;5053605;28;20024;-80
2022/06/27 10:55:29;;;;;;;41.35;38.97;;;;;;;22.37;49.99;101465.00;5052828;28;20087;-78
2022/06/27 10:57:56;;;;;;;40.13;37.88;;;;;;;22.37;49.92;101462.25;5053276;28;20116;-78
2022/06/27 11:00:48;;;;;;;41.28;38.55;;;;;;;22.39;49.78;101471.00;5051862;28;20461;-79
2022/06/27 11:03:25;;;;;;;41.28;38.67;;;;;;;22.38;49.78;101481.22;5052045;28;20045;-79
2022/06/27 11:05:58;;;;;;;43.80;40.78;;;;;;;22.38;50.23;101497.72;5052697;28;20112;-80
2022/06/27 11:08:24;;;;;;;40.83;38.38;;;;;;;22.38;50.14;101506.00;5053123;28;20052;-80
2022/06/27 11:10:51;;;;;;;41.67;39.00;;;;;;;22.39;50.21;101521.38;5052767;28;20104;-80
2022/06/27 11:13:38;;;;;;;43.35;39.65;;;;;;;22.40;50.42;101528.53;5055673;28;20029;-85